Aérodrome :
LOGIN :

S'inscrire | Disclaimer

   EN    FR    IT 

 










Légende :    VFR   VFR Marginal   IFR   IFR Intensif   IFR Très Intensif
Visi : 
Plafond : 
>= 8 km
>= 3000ft
5 à 8 km
1000 à 3000 ft
1500m à 5 km
500 à 1000 ft
800 à 1500m
200 à 500 ft
< 800m
< 200 ft
Symboles :   Orages  Brouillard  Fortes neiges  Fortes précipitations  Vent > 20 kt
SIGMETs :   Divers  Orages  Givrage  Turbulence  Onde Orograph.  Cendres Volcan.







- Altitude de l'aérodrome : 220 ft
- Code IATA : CWL
- Voir les cartes d'approche


EGFF - Cardiff Rhoose

DERNIER METAR :
  • 300250Z AUTO 12018KT 9999 NCD 11/06 Q1001

METARs EXPIRÉS :
  • 300220Z AUTO 12016KT 9999 NCD 11/06 Q1002
  • 300150Z AUTO 12017KT 9999 NCD 11/06 Q1002
  • 300120Z AUTO 12017KT 9999 NCD 11/06 Q1003
  • 300050Z AUTO 12018KT 9999 NCD 11/06 Q1003
  • 300020Z AUTO 12018KT 9999 NCD 11/06 Q1004

TAF TAF EGFF
Valide du 30 à 00h jusqu'au 01 à 00h UTC


292302Z 3000/3024 12018KT 9999 FEW045
TEMPO 3000/3014 13022G32KT
TEMPO 3009/3014 7000 RA SHRA
PROB30
TEMPO 3011/3014 4000 +SHRA BKN014
TEMPO 3014/3024 6000 SHRA BKN008
BECMG 3016/3019 10008KT
ATIS : +44 1446 729 319
Pas de NOTAMs connus pour ce terrain.



MET'MAP, la Météo Aéronautique d'un coup d'oeil ! - Copyright ORBIFLY Décembre 2007 - Disclaimer

ORBIFLY MET'MAP TEAM :

Programmation & Développement : Alexandra Zaïnal
Conception & Développement : Baudouin d'Aumeries
Co-Programmation & Développement : Marc-Olivier Méhu
Soutien technique & logistique : Manuel Goepfert

Contact : metmap@orbifly.com




SOURCES & CREDITS :

   NOAA